sensor_id;sensor_type;location;lat;lon;timestamp;temperature;humidity
26378;DHT22;14078;50.974;6.786;2022-11-20T00:00:03;3.90;99.90
26378;DHT22;14078;50.974;6.786;2022-11-20T00:02:29;3.90;99.90
26378;DHT22;14078;50.974;6.786;2022-11-20T00:04:57;3.90;99.90
26378;DHT22;14078;50.974;6.786;2022-11-20T00:07:24;3.90;99.90
26378;DHT22;14078;50.974;6.786;2022-11-20T00:09:50;3.90;99.90
26378;DHT22;14078;50.974;6.786;2022-11-20T00:12:17;3.80;99.90
26378;DHT22;14078;50.974;6.786;2022-11-20T00:14:43;3.80;99.90
26378;DHT22;14078;50.974;6.786;2022-11-20T00:17:10;3.80;99.90
26378;DHT22;14078;50.974;6.786;2022-11-20T00:19:36;3.80;99.90
26378;DHT22;14078;50.974;6.786;2022-11-20T00:22:04;3.80;99.90
26378;DHT22;14078;50.974;6.786;2022-11-20T00:24:31;3.80;99.90
26378;DHT22;14078;50.974;6.786;2022-11-20T00:26:57;3.70;99.90
26378;DHT22;14078;50.974;6.786;2022-11-20T00:29:24;3.80;99.90
26378;DHT22;14078;50.974;6.786;2022-11-20T00:31:50;3.80;99.90
26378;DHT22;14078;50.974;6.786;2022-11-20T00:34:17;3.80;99.90
26378;DHT22;14078;50.974;6.786;2022-11-20T00:36:43;3.80;99.90
26378;DHT22;14078;50.974;6.786;2022-11-20T00:39:11;3.80;99.90
26378;DHT22;14078;50.974;6.786;2022-11-20T00:41:38;3.70;99.90
26378;DHT22;14078;50.974;6.786;2022-11-20T00:44:04;3.70;99.90
26378;DHT22;14078;50.974;6.786;2022-11-20T00:46:31;3.70;99.90
26378;DHT22;14078;50.974;6.786;2022-11-20T00:48:58;3.70;99.90
26378;DHT22;14078;50.974;6.786;2022-11-20T00:51:25;3.80;99.90
26378;DHT22;14078;50.974;6.786;2022-11-20T00:53:54;3.80;99.90
26378;DHT22;14078;50.974;6.786;2022-11-20T00:56:22;3.80;99.90
26378;DHT22;14078;50.974;6.786;2022-11-20T00:58:48;3.90;99.90
26378;DHT22;14078;50.974;6.786;2022-11-20T01:01:15;3.90;99.90
26378;DHT22;14078;50.974;6.786;2022-11-20T01:03:43;3.90;99.90
26378;DHT22;14078;50.974;6.786;2022-11-20T01:06:11;3.90;99.90
26378;DHT22;14078;50.974;6.786;2022-11-20T01:08:37;3.80;99.90
26378;DHT22;14078;50.974;6.786;2022-11-20T01:11:05;3.80;99.90
26378;DHT22;14078;50.974;6.786;2022-11-20T01:13:33;3.70;99.90
26378;DHT22;14078;50.974;6.786;2022-11-20T01:16:04;3.70;99.90
26378;DHT22;14078;50.974;6.786;2022-11-20T01:18:30;3.70;99.90
26378;DHT22;14078;50.974;6.786;2022-11-20T01:20:59;3.70;99.90
26378;DHT22;14078;50.974;6.786;2022-11-20T01:23:26;3.70;99.90
26378;DHT22;14078;50.974;6.786;2022-11-20T01:25:52;3.70;99.90
26378;DHT22;14078;50.974;6.786;2022-11-20T01:28:19;3.70;99.90
26378;DHT22;14078;50.974;6.786;2022-11-20T01:30:47;3.70;99.90
26378;DHT22;14078;50.974;6.786;2022-11-20T01:33:13;3.70;99.90
26378;DHT22;14078;50.974;6.786;2022-11-20T01:35:40;3.70;99.90
26378;DHT22;14078;50.974;6.786;2022-11-20T01:38:06;3.70;99.90
26378;DHT22;14078;50.974;6.786;2022-11-20T01:40:33;3.80;99.90
26378;DHT22;14078;50.974;6.786;2022-11-20T01:43:01;3.80;99.90
26378;DHT22;14078;50.974;6.786;2022-11-20T01:45:52;3.70;99.90
26378;DHT22;14078;50.974;6.786;2022-11-20T01:48:22;3.70;99.90
26378;DHT22;14078;50.974;6.786;2022-11-20T01:50:49;3.70;99.90
26378;DHT22;14078;50.974;6.786;2022-11-20T01:53:17;3.60;99.90
26378;DHT22;14078;50.974;6.786;2022-11-20T01:55:45;3.60;99.90
26378;DHT22;14078;50.974;6.786;2022-11-20T01:58:14;3.60;99.90
26378;DHT22;14078;50.974;6.786;2022-11-20T02:00:42;3.60;99.90
26378;DHT22;14078;50.974;6.786;2022-11-20T02:03:11;3.60;99.90
26378;DHT22;14078;50.974;6.786;2022-11-20T02:05:40;3.60;99.90
26378;DHT22;14078;50.974;6.786;2022-11-20T02:08:08;3.50;99.90
26378;DHT22;14078;50.974;6.786;2022-11-20T02:10:34;3.60;99.90
26378;DHT22;14078;50.974;6.786;2022-11-20T02:13:01;3.60;99.90
26378;DHT22;14078;50.974;6.786;2022-11-20T02:15:46;3.60;99.90
26378;DHT22;14078;50.974;6.786;2022-11-20T02:18:14;3.60;99.90
26378;DHT22;14078;50.974;6.786;2022-11-20T02:20:42;3.70;99.90
26378;DHT22;14078;50.974;6.786;2022-11-20T02:23:11;3.70;99.90
26378;DHT22;14078;50.974;6.786;2022-11-20T02:25:39;3.70;99.90
26378;DHT22;14078;50.974;6.786;2022-11-20T02:28:08;3.80;99.90
26378;DHT22;14078;50.974;6.786;2022-11-20T02:30:34;3.80;99.90
26378;DHT22;14078;50.974;6.786;2022-11-20T02:33:01;3.80;99.90
26378;DHT22;14078;50.974;6.786;2022-11-20T02:35:39;3.80;99.90
26378;DHT22;14078;50.974;6.786;2022-11-20T02:38:05;3.80;99.90
26378;DHT22;14078;50.974;6.786;2022-11-20T02:40:32;3.90;99.90
26378;DHT22;14078;50.974;6.786;2022-11-20T02:43:00;3.90;99.90
26378;DHT22;14078;50.974;6.786;2022-11-20T02:45:27;3.90;99.90
26378;DHT22;14078;50.974;6.786;2022-11-20T02:47:53;4.00;99.90
26378;DHT22;14078;50.974;6.786;2022-11-20T02:50:20;4.00;99.90
26378;DHT22;14078;50.974;6.786;2022-11-20T02:52:46;4.10;99.90
26378;DHT22;14078;50.974;6.786;2022-11-20T02:55:13;4.10;99.90
26378;DHT22;14078;50.974;6.786;2022-11-20T02:57:39;4.20;99.90
26378;DHT22;14078;50.974;6.786;2022-11-20T03:00:08;4.20;99.90
26378;DHT22;14078;50.974;6.786;2022-11-20T03:02:35;4.30;99.90
26378;DHT22;14078;50.974;6.786;2022-11-20T03:05:01;4.30;99.90
26378;DHT22;14078;50.974;6.786;2022-11-20T03:07:28;4.30;99.90
26378;DHT22;14078;50.974;6.786;2022-11-20T03:09:54;4.30;99.90
26378;DHT22;14078;50.974;6.786;2022-11-20T03:12:21;4.40;99.90
26378;DHT22;14078;50.974;6.786;2022-11-20T03:14:47;4.50;99.90
26378;DHT22;14078;50.974;6.786;2022-11-20T03:17:15;4.40;99.90
26378;DHT22;14078;50.974;6.786;2022-11-20T03:19:42;4.50;99.90
26378;DHT22;14078;50.974;6.786;2022-11-20T03:22:08;4.40;99.90
26378;DHT22;14078;50.974;6.786;2022-11-20T03:24:35;4.30;99.90
26378;DHT22;14078;50.974;6.786;2022-11-20T03:27:01;4.30;99.90
26378;DHT22;14078;50.974;6.786;2022-11-20T03:29:28;4.20;99.90
26378;DHT22;14078;50.974;6.786;2022-11-20T03:31:54;4.20;99.90
26378;DHT22;14078;50.974;6.786;2022-11-20T03:34:22;4.20;99.90
26378;DHT22;14078;50.974;6.786;2022-11-20T03:36:49;4.30;99.90
26378;DHT22;14078;50.974;6.786;2022-11-20T03:39:15;4.20;99.90
26378;DHT22;14078;50.974;6.786;2022-11-20T03:41:42;4.30;99.90
26378;DHT22;14078;50.974;6.786;2022-11-20T03:44:09;4.30;99.90
26378;DHT22;14078;50.974;6.786;2022-11-20T03:46:36;4.30;99.90
26378;DHT22;14078;50.974;6.786;2022-11-20T03:49:02;4.40;99.90
26378;DHT22;14078;50.974;6.786;2022-11-20T03:51:31;4.40;99.90
26378;DHT22;14078;50.974;6.786;2022-11-20T03:53:59;4.40;99.90
26378;DHT22;14078;50.974;6.786;2022-11-20T03:56:27;4.20;99.90
26378;DHT22;14078;50.974;6.786;2022-11-20T03:58:53;4.00;99.90
26378;DHT22;14078;50.974;6.786;2022-11-20T04:01:21;3.90;99.90
26378;DHT22;14078;50.974;6.786;2022-11-20T04:03:48;3.90;99.90
26378;DHT22;14078;50.974;6.786;2022-11-20T04:06:15;3.80;99.90
26378;DHT22;14078;50.974;6.786;2022-11-20T04:08:43;3.80;99.90
26378;DHT22;14078;50.974;6.786;2022-11-20T04:11:11;3.70;99.90
26378;DHT22;14078;50.974;6.786;2022-11-20T04:13:37;3.70;99.90
26378;DHT22;14078;50.974;6.786;2022-11-20T04:16:04;3.70;99.90
26378;DHT22;14078;50.974;6.786;2022-11-20T04:18:31;3.70;99.90
26378;DHT22;14078;50.974;6.786;2022-11-20T04:20:57;3.60;99.90
26378;DHT22;14078;50.974;6.786;2022-11-20T04:23:24;3.70;99.90
26378;DHT22;14078;50.974;6.786;2022-11-20T04:25:52;3.90;99.90
26378;DHT22;14078;50.974;6.786;2022-11-20T04:28:19;4.00;99.90
26378;DHT22;14078;50.974;6.786;2022-11-20T04:30:45;4.00;99.90
26378;DHT22;14078;50.974;6.786;2022-11-20T04:33:12;4.00;99.90
26378;DHT22;14078;50.974;6.786;2022-11-20T04:35:38;4.00;99.90
26378;DHT22;14078;50.974;6.786;2022-11-20T04:38:05;4.00;99.90
26378;DHT22;14078;50.974;6.786;2022-11-20T04:40:31;4.00;99.90
26378;DHT22;14078;50.974;6.786;2022-11-20T04:42:59;4.10;99.90
26378;DHT22;14078;50.974;6.786;2022-11-20T04:45:26;4.20;99.90
26378;DHT22;14078;50.974;6.786;2022-11-20T04:47:52;4.30;99.90
26378;DHT22;14078;50.974;6.786;2022-11-20T04:50:19;4.30;99.90
26378;DHT22;14078;50.974;6.786;2022-11-20T04:52:45;4.20;99.90
26378;DHT22;14078;50.974;6.786;2022-11-20T04:55:12;4.30;99.90
26378;DHT22;14078;50.974;6.786;2022-11-20T04:57:38;4.30;99.90
26378;DHT22;14078;50.974;6.786;2022-11-20T05:00:07;4.20;99.90
26378;DHT22;14078;50.974;6.786;2022-11-20T05:02:34;4.20;99.90
26378;DHT22;14078;50.974;6.786;2022-11-20T05:05:00;4.20;99.90
26378;DHT22;14078;50.974;6.786;2022-11-20T05:07:27;4.10;99.90
26378;DHT22;14078;50.974;6.786;2022-11-20T05:09:53;4.10;99.90
26378;DHT22;14078;50.974;6.786;2022-11-20T05:12:20;4.20;99.90
26378;DHT22;14078;50.974;6.786;2022-11-20T05:14:46;4.20;99.90
26378;DHT22;14078;50.974;6.786;2022-11-20T05:17:14;4.20;99.90
26378;DHT22;14078;50.974;6.786;2022-11-20T05:19:41;4.30;99.90
26378;DHT22;14078;50.974;6.786;2022-11-20T05:22:07;4.20;99.90
26378;DHT22;14078;50.974;6.786;2022-11-20T05:24:34;4.30;99.90
26378;DHT22;14078;50.974;6.786;2022-11-20T05:27:00;4.30;99.90
26378;DHT22;14078;50.974;6.786;2022-11-20T05:29:27;4.20;99.90
26378;DHT22;14078;50.974;6.786;2022-11-20T05:31:53;4.20;99.90
26378;DHT22;14078;50.974;6.786;2022-11-20T05:34:21;4.10;99.90
26378;DHT22;14078;50.974;6.786;2022-11-20T05:36:47;4.10;99.90
26378;DHT22;14078;50.974;6.786;2022-11-20T05:39:14;4.20;99.90
26378;DHT22;14078;50.974;6.786;2022-11-20T05:41:40;4.30;99.90
26378;DHT22;14078;50.974;6.786;2022-11-20T05:44:09;4.30;99.90
26378;DHT22;14078;50.974;6.786;2022-11-20T05:46:36;4.30;99.90
26378;DHT22;14078;50.974;6.786;2022-11-20T05:49:02;4.30;99.90
26378;DHT22;14078;50.974;6.786;2022-11-20T05:51:30;4.20;99.90
26378;DHT22;14078;50.974;6.786;2022-11-20T05:53:58;4.20;99.90
26378;DHT22;14078;50.974;6.786;2022-11-20T05:56:25;4.20;99.90
26378;DHT22;14078;50.974;6.786;2022-11-20T05:58:51;4.10;99.90
26378;DHT22;14078;50.974;6.786;2022-11-20T06:01:19;4.10;99.90
26378;DHT22;14078;50.974;6.786;2022-11-20T06:03:45;4.00;99.90
26378;DHT22;14078;50.974;6.786;2022-11-20T06:06:13;4.00;99.90
26378;DHT22;14078;50.974;6.786;2022-11-20T06:08:41;4.00;99.90
26378;DHT22;14078;50.974;6.786;2022-11-20T06:11:08;4.10;99.90
26378;DHT22;14078;50.974;6.786;2022-11-20T06:13:34;4.00;99.90
26378;DHT22;14078;50.974;6.786;2022-11-20T06:16:01;4.10;99.90
26378;DHT22;14078;50.974;6.786;2022-11-20T06:18:28;3.90;99.90
26378;DHT22;14078;50.974;6.786;2022-11-20T06:21:01;3.90;99.90
26378;DHT22;14078;50.974;6.786;2022-11-20T06:23:29;3.90;99.90
26378;DHT22;14078;50.974;6.786;2022-11-20T06:26:01;3.90;99.90
26378;DHT22;14078;50.974;6.786;2022-11-20T06:28:27;4.00;99.90
26378;DHT22;14078;50.974;6.786;2022-11-20T06:30:54;4.00;99.90
26378;DHT22;14078;50.974;6.786;2022-11-20T06:33:20;4.00;99.90
26378;DHT22;14078;50.974;6.786;2022-11-20T06:35:47;4.00;99.90
26378;DHT22;14078;50.974;6.786;2022-11-20T06:38:13;4.00;99.90
26378;DHT22;14078;50.974;6.786;2022-11-20T06:40:40;3.90;99.90
26378;DHT22;14078;50.974;6.786;2022-11-20T06:43:08;3.90;99.90
26378;DHT22;14078;50.974;6.786;2022-11-20T06:45:35;3.80;99.90
26378;DHT22;14078;50.974;6.786;2022-11-20T06:48:01;3.90;99.90
26378;DHT22;14078;50.974;6.786;2022-11-20T06:50:28;3.90;99.90
26378;DHT22;14078;50.974;6.786;2022-11-20T06:52:54;4.00;99.90
26378;DHT22;14078;50.974;6.786;2022-11-20T06:55:21;3.90;99.90
26378;DHT22;14078;50.974;6.786;2022-11-20T06:57:47;3.80;99.90
26378;DHT22;14078;50.974;6.786;2022-11-20T07:00:15;3.80;99.90
26378;DHT22;14078;50.974;6.786;2022-11-20T07:02:42;3.90;99.90
26378;DHT22;14078;50.974;6.786;2022-11-20T07:05:08;4.00;99.90
26378;DHT22;14078;50.974;6.786;2022-11-20T07:07:35;4.20;99.90
26378;DHT22;14078;50.974;6.786;2022-11-20T07:10:01;4.30;99.90
26378;DHT22;14078;50.974;6.786;2022-11-20T07:12:28;4.50;99.90
26378;DHT22;14078;50.974;6.786;2022-11-20T07:14:54;4.50;99.90
26378;DHT22;14078;50.974;6.786;2022-11-20T07:17:23;4.60;99.90
26378;DHT22;14078;50.974;6.786;2022-11-20T07:19:49;4.60;99.90
26378;DHT22;14078;50.974;6.786;2022-11-20T07:22:16;4.70;99.90
26378;DHT22;14078;50.974;6.786;2022-11-20T07:24:42;4.80;99.90
26378;DHT22;14078;50.974;6.786;2022-11-20T07:27:09;4.80;99.90
26378;DHT22;14078;50.974;6.786;2022-11-20T07:29:35;4.80;99.90
26378;DHT22;14078;50.974;6.786;2022-11-20T07:32:02;4.80;99.90
26378;DHT22;14078;50.974;6.786;2022-11-20T07:34:31;4.80;99.90
26378;DHT22;14078;50.974;6.786;2022-11-20T07:36:58;4.80;99.90
26378;DHT22;14078;50.974;6.786;2022-11-20T07:39:24;4.90;99.90
26378;DHT22;14078;50.974;6.786;2022-11-20T07:41:51;4.90;99.90
26378;DHT22;14078;50.974;6.786;2022-11-20T07:44:17;4.80;99.90
26378;DHT22;14078;50.974;6.786;2022-11-20T07:46:44;4.80;99.90
26378;DHT22;14078;50.974;6.786;2022-11-20T07:49:10;4.70;99.90
26378;DHT22;14078;50.974;6.786;2022-11-20T07:51:38;4.60;99.90
26378;DHT22;14078;50.974;6.786;2022-11-20T07:54:04;4.50;99.90
26378;DHT22;14078;50.974;6.786;2022-11-20T07:56:31;4.50;99.90
26378;DHT22;14078;50.974;6.786;2022-11-20T07:58:57;4.50;99.90
26378;DHT22;14078;50.974;6.786;2022-11-20T08:01:24;4.50;99.90
26378;DHT22;14078;50.974;6.786;2022-11-20T08:03:51;4.60;99.90
26378;DHT22;14078;50.974;6.786;2022-11-20T08:06:17;4.60;99.90
26378;DHT22;14078;50.974;6.786;2022-11-20T08:08:46;4.60;99.90
26378;DHT22;14078;50.974;6.786;2022-11-20T08:11:13;4.60;99.90
26378;DHT22;14078;50.974;6.786;2022-11-20T08:13:57;4.60;99.90
26378;DHT22;14078;50.974;6.786;2022-11-20T08:16:38;4.70;99.90
26378;DHT22;14078;50.974;6.786;2022-11-20T08:19:05;4.70;99.90
26378;DHT22;14078;50.974;6.786;2022-11-20T08:21:32;4.70;99.90
26378;DHT22;14078;50.974;6.786;2022-11-20T08:24:00;4.70;99.90
26378;DHT22;14078;50.974;6.786;2022-11-20T08:26:26;4.80;99.90
26378;DHT22;14078;50.974;6.786;2022-11-20T08:28:53;4.90;99.90
26378;DHT22;14078;50.974;6.786;2022-11-20T08:31:20;4.90;99.90
26378;DHT22;14078;50.974;6.786;2022-11-20T08:33:47;4.80;99.90
26378;DHT22;14078;50.974;6.786;2022-11-20T08:36:14;4.90;99.90
26378;DHT22;14078;50.974;6.786;2022-11-20T08:38:40;4.90;99.90
26378;DHT22;14078;50.974;6.786;2022-11-20T08:41:08;5.00;99.90
26378;DHT22;14078;50.974;6.786;2022-11-20T08:43:51;4.90;99.90
26378;DHT22;14078;50.974;6.786;2022-11-20T08:46:18;4.80;99.90
26378;DHT22;14078;50.974;6.786;2022-11-20T08:48:44;4.70;99.90
26378;DHT22;14078;50.974;6.786;2022-11-20T08:51:11;4.70;99.90
26378;DHT22;14078;50.974;6.786;2022-11-20T08:53:38;4.60;99.90
26378;DHT22;14078;50.974;6.786;2022-11-20T08:56:05;4.70;99.90
26378;DHT22;14078;50.974;6.786;2022-11-20T08:58:33;4.80;99.90
26378;DHT22;14078;50.974;6.786;2022-11-20T09:00:59;4.80;99.90
26378;DHT22;14078;50.974;6.786;2022-11-20T09:03:26;4.90;99.90
26378;DHT22;14078;50.974;6.786;2022-11-20T09:05:56;4.90;99.90
26378;DHT22;14078;50.974;6.786;2022-11-20T09:08:22;4.90;99.90
26378;DHT22;14078;50.974;6.786;2022-11-20T09:10:50;4.90;99.90
26378;DHT22;14078;50.974;6.786;2022-11-20T09:13:17;4.90;99.90
26378;DHT22;14078;50.974;6.786;2022-11-20T09:15:45;4.90;99.90
26378;DHT22;14078;50.974;6.786;2022-11-20T09:18:11;4.90;99.90
26378;DHT22;14078;50.974;6.786;2022-11-20T09:20:38;4.80;99.90
26378;DHT22;14078;50.974;6.786;2022-11-20T09:23:05;4.90;99.90
26378;DHT22;14078;50.974;6.786;2022-11-20T09:25:31;4.90;99.90
26378;DHT22;14078;50.974;6.786;2022-11-20T09:27:58;4.90;99.90
26378;DHT22;14078;50.974;6.786;2022-11-20T09:30:25;5.00;99.90
26378;DHT22;14078;50.974;6.786;2022-11-20T09:32:53;5.00;99.90
26378;DHT22;14078;50.974;6.786;2022-11-20T09:35:20;4.90;99.90
26378;DHT22;14078;50.974;6.786;2022-11-20T09:37:47;5.00;99.90
26378;DHT22;14078;50.974;6.786;2022-11-20T09:40:17;5.30;99.90
26378;DHT22;14078;50.974;6.786;2022-11-20T09:42:46;5.40;99.90
26378;DHT22;14078;50.974;6.786;2022-11-20T09:45:20;5.50;99.90
26378;DHT22;14078;50.974;6.786;2022-11-20T09:47:50;5.50;99.90
26378;DHT22;14078;50.974;6.786;2022-11-20T09:50:22;5.40;99.90
26378;DHT22;14078;50.974;6.786;2022-11-20T09:52:54;5.60;99.90
26378;DHT22;14078;50.974;6.786;2022-11-20T09:55:25;5.60;99.90
26378;DHT22;14078;50.974;6.786;2022-11-20T09:57:51;5.80;99.90
26378;DHT22;14078;50.974;6.786;2022-11-20T10:00:18;5.70;99.90
26378;DHT22;14078;50.974;6.786;2022-11-20T10:02:47;5.70;99.90
26378;DHT22;14078;50.974;6.786;2022-11-20T10:05:15;5.70;99.90
26378;DHT22;14078;50.974;6.786;2022-11-20T10:07:47;5.60;99.90
26378;DHT22;14078;50.974;6.786;2022-11-20T10:10:15;5.50;99.90
26378;DHT22;14078;50.974;6.786;2022-11-20T10:12:50;5.50;99.90
26378;DHT22;14078;50.974;6.786;2022-11-20T10:15:24;5.50;99.90
26378;DHT22;14078;50.974;6.786;2022-11-20T10:17:55;5.40;99.90
26378;DHT22;14078;50.974;6.786;2022-11-20T10:20:27;5.60;99.90
26378;DHT22;14078;50.974;6.786;2022-11-20T10:23:00;5.60;99.90
26378;DHT22;14078;50.974;6.786;2022-11-20T10:25:30;5.50;99.90
26378;DHT22;14078;50.974;6.786;2022-11-20T10:28:04;5.50;99.90
26378;DHT22;14078;50.974;6.786;2022-11-20T10:30:34;5.40;99.90
26378;DHT22;14078;50.974;6.786;2022-11-20T10:33:03;5.50;99.90
26378;DHT22;14078;50.974;6.786;2022-11-20T10:35:32;5.50;99.90
26378;DHT22;14078;50.974;6.786;2022-11-20T10:38:04;5.60;99.90
26378;DHT22;14078;50.974;6.786;2022-11-20T10:40:33;5.60;99.90
26378;DHT22;14078;50.974;6.786;2022-11-20T10:43:01;5.70;99.90
26378;DHT22;14078;50.974;6.786;2022-11-20T10:45:40;5.70;99.90
26378;DHT22;14078;50.974;6.786;2022-11-20T10:48:14;5.70;99.90
26378;DHT22;14078;50.974;6.786;2022-11-20T10:50:45;5.60;99.90
26378;DHT22;14078;50.974;6.786;2022-11-20T10:53:18;5.60;99.90
26378;DHT22;14078;50.974;6.786;2022-11-20T10:55:48;5.60;99.90
26378;DHT22;14078;50.974;6.786;2022-11-20T10:58:18;5.60;99.90
26378;DHT22;14078;50.974;6.786;2022-11-20T11:00:48;5.60;99.90
26378;DHT22;14078;50.974;6.786;2022-11-20T11:03:20;5.60;99.90
26378;DHT22;14078;50.974;6.786;2022-11-20T11:05:48;5.60;99.90
26378;DHT22;14078;50.974;6.786;2022-11-20T11:08:18;5.70;99.90
26378;DHT22;14078;50.974;6.786;2022-11-20T11:10:46;5.70;99.90
26378;DHT22;14078;50.974;6.786;2022-11-20T11:13:20;5.60;99.90
26378;DHT22;14078;50.974;6.786;2022-11-20T11:15:47;5.70;99.90
26378;DHT22;14078;50.974;6.786;2022-11-20T11:18:22;5.70;99.90
26378;DHT22;14078;50.974;6.786;2022-11-20T11:20:49;5.70;99.90
26378;DHT22;14078;50.974;6.786;2022-11-20T11:23:26;5.60;99.90
26378;DHT22;14078;50.974;6.786;2022-11-20T11:25:55;5.60;99.90
26378;DHT22;14078;50.974;6.786;2022-11-20T11:28:22;5.70;99.90
26378;DHT22;14078;50.974;6.786;2022-11-20T11:30:52;5.70;99.90
26378;DHT22;14078;50.974;6.786;2022-11-20T11:33:23;5.70;99.90
26378;DHT22;14078;50.974;6.786;2022-11-20T11:35:50;5.70;99.90
26378;DHT22;14078;50.974;6.786;2022-11-20T11:38:19;5.60;99.90
26378;DHT22;14078;50.974;6.786;2022-11-20T11:40:48;5.50;99.90
26378;DHT22;14078;50.974;6.786;2022-11-20T11:43:17;5.50;99.90
26378;DHT22;14078;50.974;6.786;2022-11-20T11:45:58;5.50;99.90
26378;DHT22;14078;50.974;6.786;2022-11-20T11:48:25;5.50;99.90
26378;DHT22;14078;50.974;6.786;2022-11-20T11:50:51;5.60;99.90
26378;DHT22;14078;50.974;6.786;2022-11-20T11:53:19;5.60;99.90
26378;DHT22;14078;50.974;6.786;2022-11-20T11:55:51;5.60;99.90
26378;DHT22;14078;50.974;6.786;2022-11-20T11:58:27;5.60;99.90
26378;DHT22;14078;50.974;6.786;2022-11-20T12:00:57;5.60;99.90
26378;DHT22;14078;50.974;6.786;2022-11-20T12:03:27;5.70;99.90
26378;DHT22;14078;50.974;6.786;2022-11-20T12:05:55;5.70;99.90
26378;DHT22;14078;50.974;6.786;2022-11-20T12:08:24;5.70;99.90
26378;DHT22;14078;50.974;6.786;2022-11-20T12:10:54;5.70;99.90
26378;DHT22;14078;50.974;6.786;2022-11-20T12:13:25;5.80;99.90
26378;DHT22;14078;50.974;6.786;2022-11-20T12:15:56;5.70;99.90
26378;DHT22;14078;50.974;6.786;2022-11-20T12:18:24;5.70;99.90
26378;DHT22;14078;50.974;6.786;2022-11-20T12:20:54;5.80;99.90
26378;DHT22;14078;50.974;6.786;2022-11-20T12:23:22;5.80;99.90
26378;DHT22;14078;50.974;6.786;2022-11-20T12:25:54;5.80;99.90
26378;DHT22;14078;50.974;6.786;2022-11-20T12:28:26;5.80;99.90
26378;DHT22;14078;50.974;6.786;2022-11-20T12:31:04;5.70;99.90
26378;DHT22;14078;50.974;6.786;2022-11-20T12:33:40;5.60;99.90
26378;DHT22;14078;50.974;6.786;2022-11-20T12:36:13;5.80;99.90
26378;DHT22;14078;50.974;6.786;2022-11-20T12:38:56;5.80;99.90
26378;DHT22;14078;50.974;6.786;2022-11-20T12:41:29;5.80;99.90
26378;DHT22;14078;50.974;6.786;2022-11-20T12:44:22;5.90;99.90
26378;DHT22;14078;50.974;6.786;2022-11-20T12:47:12;5.90;99.90
26378;DHT22;14078;50.974;6.786;2022-11-20T12:49:44;5.80;99.90
26378;DHT22;14078;50.974;6.786;2022-11-20T12:52:16;5.90;99.90
26378;DHT22;14078;50.974;6.786;2022-11-20T12:54:59;5.80;99.90
26378;DHT22;14078;50.974;6.786;2022-11-20T12:57:32;5.90;99.90
26378;DHT22;14078;50.974;6.786;2022-11-20T13:00:08;5.90;99.90
26378;DHT22;14078;50.974;6.786;2022-11-20T13:02:39;6.10;99.90
26378;DHT22;14078;50.974;6.786;2022-11-20T13:05:12;6.10;99.90
26378;DHT22;14078;50.974;6.786;2022-11-20T13:07:41;6.20;99.90
26378;DHT22;14078;50.974;6.786;2022-11-20T13:10:13;6.20;99.90
26378;DHT22;14078;50.974;6.786;2022-11-20T13:12:43;6.20;99.90
26378;DHT22;14078;50.974;6.786;2022-11-20T13:15:15;6.20;99.90
26378;DHT22;14078;50.974;6.786;2022-11-20T13:17:46;6.30;99.90
26378;DHT22;14078;50.974;6.786;2022-11-20T13:20:14;6.20;99.90
26378;DHT22;14078;50.974;6.786;2022-11-20T13:22:43;6.20;99.90
26378;DHT22;14078;50.974;6.786;2022-11-20T13:25:10;6.20;99.90
26378;DHT22;14078;50.974;6.786;2022-11-20T13:27:46;6.10;99.90
26378;DHT22;14078;50.974;6.786;2022-11-20T13:30:15;6.10;99.90
26378;DHT22;14078;50.974;6.786;2022-11-20T13:32:52;6.20;99.90
26378;DHT22;14078;50.974;6.786;2022-11-20T13:35:24;6.20;99.90
26378;DHT22;14078;50.974;6.786;2022-11-20T13:37:58;6.20;99.90
26378;DHT22;14078;50.974;6.786;2022-11-20T13:40:26;6.10;99.90
26378;DHT22;14078;50.974;6.786;2022-11-20T13:42:56;6.20;99.90
26378;DHT22;14078;50.974;6.786;2022-11-20T13:45:29;6.30;99.90
26378;DHT22;14078;50.974;6.786;2022-11-20T13:47:56;6.20;99.90
26378;DHT22;14078;50.974;6.786;2022-11-20T13:50:27;6.20;99.90
26378;DHT22;14078;50.974;6.786;2022-11-20T13:53:04;6.10;99.90
26378;DHT22;14078;50.974;6.786;2022-11-20T13:55:34;6.20;99.90
26378;DHT22;14078;50.974;6.786;2022-11-20T13:58:05;6.20;99.90
26378;DHT22;14078;50.974;6.786;2022-11-20T14:00:41;6.20;99.90
26378;DHT22;14078;50.974;6.786;2022-11-20T14:03:17;6.20;99.90
26378;DHT22;14078;50.974;6.786;2022-11-20T14:05:46;6.30;99.90
26378;DHT22;14078;50.974;6.786;2022-11-20T14:08:17;6.30;99.90
26378;DHT22;14078;50.974;6.786;2022-11-20T14:10:47;6.30;99.90
26378;DHT22;14078;50.974;6.786;2022-11-20T14:13:15;6.30;99.90
26378;DHT22;14078;50.974;6.786;2022-11-20T14:15:45;6.20;99.90
26378;DHT22;14078;50.974;6.786;2022-11-20T14:18:12;6.20;99.90
26378;DHT22;14078;50.974;6.786;2022-11-20T14:20:39;6.20;99.90
26378;DHT22;14078;50.974;6.786;2022-11-20T14:23:07;6.20;99.90
26378;DHT22;14078;50.974;6.786;2022-11-20T14:25:35;6.20;99.90
26378;DHT22;14078;50.974;6.786;2022-11-20T14:28:02;6.30;99.90
26378;DHT22;14078;50.974;6.786;2022-11-20T14:30:37;6.20;99.90
26378;DHT22;14078;50.974;6.786;2022-11-20T14:33:05;6.30;99.90
26378;DHT22;14078;50.974;6.786;2022-11-20T14:35:34;6.30;99.90
26378;DHT22;14078;50.974;6.786;2022-11-20T14:38:01;6.30;99.90
26378;DHT22;14078;50.974;6.786;2022-11-20T14:40:30;6.50;99.90
26378;DHT22;14078;50.974;6.786;2022-11-20T14:42:57;6.40;99.90
26378;DHT22;14078;50.974;6.786;2022-11-20T14:45:24;6.40;99.90
26378;DHT22;14078;50.974;6.786;2022-11-20T14:47:51;6.40;99.90
26378;DHT22;14078;50.974;6.786;2022-11-20T14:50:20;6.40;99.90
26378;DHT22;14078;50.974;6.786;2022-11-20T14:52:51;6.40;99.90
26378;DHT22;14078;50.974;6.786;2022-11-20T14:55:24;6.30;99.90
26378;DHT22;14078;50.974;6.786;2022-11-20T14:57:54;6.40;99.90
26378;DHT22;14078;50.974;6.786;2022-11-20T15:00:21;6.40;99.90
26378;DHT22;14078;50.974;6.786;2022-11-20T15:02:48;6.40;99.90
26378;DHT22;14078;50.974;6.786;2022-11-20T15:05:16;6.40;99.90
26378;DHT22;14078;50.974;6.786;2022-11-20T15:07:45;6.40;99.90
26378;DHT22;14078;50.974;6.786;2022-11-20T15:10:12;6.40;99.90
26378;DHT22;14078;50.974;6.786;2022-11-20T15:12:40;6.40;99.90
26378;DHT22;14078;50.974;6.786;2022-11-20T15:15:12;6.40;99.90
26378;DHT22;14078;50.974;6.786;2022-11-20T15:17:41;6.50;99.90
26378;DHT22;14078;50.974;6.786;2022-11-20T15:20:09;6.30;99.90
26378;DHT22;14078;50.974;6.786;2022-11-20T15:22:37;6.30;99.90
26378;DHT22;14078;50.974;6.786;2022-11-20T15:25:11;6.30;99.90
26378;DHT22;14078;50.974;6.786;2022-11-20T15:27:37;6.20;99.90
26378;DHT22;14078;50.974;6.786;2022-11-20T15:30:05;6.20;99.90
26378;DHT22;14078;50.974;6.786;2022-11-20T15:32:38;6.20;99.90
26378;DHT22;14078;50.974;6.786;2022-11-20T15:35:05;6.10;99.90
26378;DHT22;14078;50.974;6.786;2022-11-20T15:37:31;6.10;99.90
26378;DHT22;14078;50.974;6.786;2022-11-20T15:39:58;6.20;99.90
26378;DHT22;14078;50.974;6.786;2022-11-20T15:42:26;6.30;99.90
26378;DHT22;14078;50.974;6.786;2022-11-20T15:44:52;6.20;99.90
26378;DHT22;14078;50.974;6.786;2022-11-20T15:47:19;6.20;99.90
26378;DHT22;14078;50.974;6.786;2022-11-20T15:49:47;6.20;99.90
26378;DHT22;14078;50.974;6.786;2022-11-20T15:52:14;6.10;99.90